Time;durP1;ratioP1;P1;durP2;ratioP2;P2;SDS_P1;SDS_P2;PMS_P1;PMS_P2;Temp;Humidity;BMP_temperature;BMP_pressure;BME280_temperature;BME280_humidity;BME280_pressure;Samples;Min_cycle;Max_cycle;Signal;HPM_P1;HPM_P2
2022/06/20 00:01:26;;;;;;;5.95;1.42;;;17.40;96.20;;;;;;5041098;28;20027;-86
2022/06/20 00:03:55;;;;;;;10.23;2.92;;;17.40;96.20;;;;;;4970411;28;20027;-86
2022/06/20 00:06:23;;;;;;;9.02;2.30;;;17.40;96.20;;;;;;4984146;28;20034;-86
2022/06/20 00:08:51;;;;;;;7.13;1.73;;;17.40;96.30;;;;;;5016903;28;20146;-86
2022/06/20 00:11:31;;;;;;;12.55;1.92;;;17.30;96.40;;;;;;5006189;28;20057;-86
2022/06/20 00:13:59;;;;;;;8.63;1.65;;;17.30;96.40;;;;;;5033332;28;20023;-86
2022/06/20 00:16:25;;;;;;;10.30;2.05;;;17.30;96.40;;;;;;4960333;28;20030;-86
2022/06/20 00:18:52;;;;;;;7.65;1.70;;;17.30;96.50;;;;;;4972720;28;20050;-85
2022/06/20 00:21:22;;;;;;;5.13;1.23;;;17.20;96.80;;;;;;4970321;28;20027;-85
2022/06/20 00:23:49;;;;;;;3.90;1.27;;;17.20;96.60;;;;;;4970655;28;20390;-86
2022/06/20 00:26:16;;;;;;;11.43;2.50;;;17.20;96.60;;;;;;5019194;28;20423;-85
2022/06/20 00:28:42;;;;;;;6.72;1.98;;;17.20;96.70;;;;;;5000319;28;20474;-85
2022/06/20 00:31:10;;;;;;;5.53;1.60;;;17.10;96.80;;;;;;5039311;28;20022;-86
2022/06/20 00:33:36;;;;;;;7.18;1.60;;;17.10;96.80;;;;;;4975538;28;20023;-86
2022/06/20 00:36:05;;;;;;;7.47;1.58;;;17.10;96.80;;;;;;4954034;28;20023;-85
2022/06/20 00:38:31;;;;;;;5.47;1.23;;;17.10;96.90;;;;;;4970925;28;20138;-86
2022/06/20 00:41:01;;;;;;;6.18;1.60;;;17.10;96.90;;;;;;4967642;28;20023;-86
2022/06/20 00:43:33;;;;;;;5.15;1.40;;;17.10;96.90;;;;;;4969953;28;20023;-86
2022/06/20 00:46:02;;;;;;;6.78;1.50;;;17.00;96.90;;;;;;4971174;28;20030;-86
2022/06/20 00:48:41;;;;;;;7.45;1.63;;;17.00;96.90;;;;;;4969848;28;20062;-87
2022/06/20 00:51:26;;;;;;;10.30;1.58;;;17.00;97.00;;;;;;4973531;28;20027;-88
2022/06/20 00:54:25;;;;;;;7.88;1.80;;;17.00;97.10;;;;;;4970011;28;20056;-86
2022/06/20 00:57:22;;;;;;;7.78;1.48;;;17.00;97.10;;;;;;4974420;28;20403;-86
2022/06/20 00:59:53;;;;;;;7.35;1.58;;;17.00;97.20;;;;;;4978073;28;20031;-87
2022/06/20 01:02:33;;;;;;;8.48;1.35;;;17.00;97.40;;;;;;4987299;28;20080;-86
2022/06/20 01:05:03;;;;;;;7.45;1.92;;;16.90;97.20;;;;;;4969770;28;20030;-86
2022/06/20 01:07:54;;;;;;;9.15;2.17;;;16.90;97.20;;;;;;4969576;28;20034;-86
2022/06/20 01:10:22;;;;;;;6.07;1.50;;;16.90;97.20;;;;;;4969690;28;20032;-86
2022/06/20 01:13:00;;;;;;;7.85;1.98;;;16.90;97.20;;;;;;4953773;28;20528;-87
2022/06/20 01:15:32;;;;;;;5.75;1.45;;;16.80;97.30;;;;;;4970445;28;20111;-86
2022/06/20 01:18:02;;;;;;;7.43;1.67;;;16.80;97.20;;;;;;4970782;28;20109;-86
2022/06/20 01:20:32;;;;;;;6.63;1.27;;;16.80;97.20;;;;;;4954108;28;20107;-86
2022/06/20 01:23:19;;;;;;;6.00;1.27;;;16.80;97.00;;;;;;4969430;28;20029;-86
2022/06/20 01:26:15;;;;;;;7.45;1.83;;;16.80;96.90;;;;;;4981807;28;20027;-86
2022/06/20 01:28:44;;;;;;;7.07;1.45;;;16.70;96.80;;;;;;4961854;28;20019;-86
2022/06/20 01:31:11;;;;;;;8.73;1.48;;;16.70;96.90;;;;;;4977733;28;20101;-86
2022/06/20 01:33:38;;;;;;;6.75;1.50;;;16.70;96.90;;;;;;4974258;28;20053;-86
2022/06/20 01:38:49;;;;;;;6.50;1.50;;;16.60;97.00;;;;;;4972961;28;20058;-86
2022/06/20 01:44:02;;;;;;;25.48;2.42;;;16.60;97.20;;;;;;4973193;28;20045;-86
2022/06/20 01:46:30;;;;;;;6.05;1.27;;;16.60;97.30;;;;;;4971840;28;20470;-86
2022/06/20 01:49:00;;;;;;;5.53;1.77;;;16.60;97.30;;;;;;4973450;28;20118;-86
2022/06/20 01:51:33;;;;;;;4.43;1.13;;;16.50;97.40;;;;;;4959943;28;20054;-86
2022/06/20 01:53:59;;;;;;;9.57;1.63;;;16.50;97.40;;;;;;4972385;28;20019;-86
2022/06/20 01:56:27;;;;;;;8.80;1.60;;;16.50;97.60;;;;;;4956247;28;20027;-86
2022/06/20 01:58:58;;;;;;;7.60;2.55;;;16.50;97.80;;;;;;4982336;28;20023;-86
2022/06/20 02:01:25;;;;;;;5.75;1.50;;;16.50;97.90;;;;;;4972256;28;20018;-86
2022/06/20 02:03:51;;;;;;;6.72;1.45;;;16.50;98.10;;;;;;4959956;28;20045;-86
2022/06/20 02:06:19;;;;;;;6.30;1.73;;;16.50;98.10;;;;;;4956043;28;20105;-86
2022/06/20 02:08:50;;;;;;;7.82;1.60;;;16.50;98.10;;;;;;4975400;28;20046;-86
2022/06/20 02:11:26;;;;;;;5.07;1.50;;;16.50;98.10;;;;;;4991754;28;20509;-87
2022/06/20 02:14:04;;;;;;;7.57;2.05;;;16.40;98.10;;;;;;4991549;28;20462;-85
2022/06/20 02:16:34;;;;;;;5.22;1.30;;;16.40;98.20;;;;;;4980815;28;20454;-86
2022/06/20 02:19:09;;;;;;;8.40;2.03;;;16.40;98.20;;;;;;4971765;28;20014;-86
2022/06/20 02:21:36;;;;;;;5.38;1.73;;;16.40;98.30;;;;;;4972112;28;20076;-86
2022/06/20 02:24:11;;;;;;;8.50;1.73;;;16.30;98.40;;;;;;4955571;28;20033;-86
2022/06/20 02:26:42;;;;;;;9.32;2.00;;;16.30;98.50;;;;;;4972099;28;20504;-86
2022/06/20 02:29:26;;;;;;;10.43;2.28;;;16.30;98.60;;;;;;4986090;28;20106;-87
2022/06/20 02:31:59;;;;;;;5.18;1.80;;;16.30;98.60;;;;;;4971804;28;20030;-87
2022/06/20 02:34:32;;;;;;;12.48;2.70;;;16.30;98.60;;;;;;4972224;28;20466;-87
2022/06/20 02:37:03;;;;;;;7.63;1.30;;;16.30;98.70;;;;;;4955287;28;20471;-86
2022/06/20 02:39:30;;;;;;;6.03;1.45;;;16.20;98.80;;;;;;4995899;28;20105;-87
2022/06/20 02:42:01;;;;;;;8.27;1.80;;;16.20;98.90;;;;;;4967722;28;20070;-86
2022/06/20 02:44:28;;;;;;;7.90;1.80;;;16.20;99.10;;;;;;4971640;28;20019;-87
2022/06/20 02:46:56;;;;;;;6.32;1.83;;;16.20;99.30;;;;;;4955814;28;20039;-86
2022/06/20 02:49:25;;;;;;;7.75;2.00;;;16.20;99.50;;;;;;4972715;28;20031;-87
2022/06/20 02:51:53;;;;;;;5.50;1.50;;;16.20;99.60;;;;;;4955677;28;20027;-87
2022/06/20 02:54:22;;;;;;;8.07;1.52;;;16.20;99.60;;;;;;4971797;28;20030;-86
2022/06/20 02:56:51;;;;;;;6.72;1.60;;;16.20;99.70;;;;;;4971451;28;20470;-86
2022/06/20 02:59:32;;;;;;;6.55;1.48;;;16.20;99.70;;;;;;4972546;28;20031;-87
2022/06/20 03:02:02;;;;;;;;;;;16.20;99.70;;;;;;4994991;28;20014;-86
2022/06/20 03:04:31;;;;;;;4.93;1.40;;;16.10;99.90;;;;;;4995732;28;19929;-87
2022/06/20 03:07:17;;;;;;;6.55;1.38;;;16.10;99.90;;;;;;4995003;28;20030;-85
2022/06/20 03:09:46;;;;;;;9.00;1.90;;;16.10;99.90;;;;;;4995829;28;20025;-87
2022/06/20 03:12:12;;;;;;;9.27;2.08;;;16.10;99.90;;;;;;4976951;28;20021;-87
2022/06/20 03:14:42;;;;;;;5.30;1.40;;;16.10;99.90;;;;;;5010229;28;20049;-83
2022/06/20 03:17:12;;;;;;;8.18;1.60;;;16.10;99.90;;;;;;4996181;28;20042;-87
2022/06/20 03:19:41;;;;;;;6.95;1.45;;;16.10;99.90;;;;;;4976956;28;20061;-87
2022/06/20 03:22:11;;;;;;;8.75;1.85;;;16.20;99.90;;;;;;4981401;28;20018;-86
2022/06/20 03:24:37;;;;;;;7.10;1.67;;;16.20;99.90;;;;;;4971165;28;20455;-86
2022/06/20 03:27:06;;;;;;;5.15;1.42;;;16.20;99.90;;;;;;4955557;28;20039;-86
2022/06/20 03:29:37;;;;;;;6.50;1.42;;;16.20;99.90;;;;;;4971019;28;20015;-86
2022/06/20 03:32:03;;;;;;;4.20;1.58;;;16.20;99.90;;;;;;4971573;28;20421;-86
2022/06/20 03:34:29;;;;;;;9.98;2.33;;;16.20;99.90;;;;;;4957726;28;20363;-86
2022/06/20 03:36:55;;;;;;;6.78;1.73;;;16.20;99.90;;;;;;4981777;28;20037;-87
2022/06/20 03:39:22;;;;;;;9.98;1.73;;;16.20;99.90;;;;;;4972257;28;20102;-86
2022/06/20 03:41:49;;;;;;;6.25;1.30;;;16.20;99.90;;;;;;4971014;28;20025;-86
2022/06/20 03:44:29;;;;;;;6.07;1.83;;;16.20;99.90;;;;;;4971019;28;20382;-86
2022/06/20 03:47:22;;;;;;;8.27;1.70;;;16.20;99.90;;;;;;4971121;28;20031;-86
2022/06/20 03:50:35;;;;;;;9.68;1.63;;;16.20;99.90;;;;;;4966892;28;20031;-86
2022/06/20 03:53:10;;;;;;;5.05;1.48;;;16.20;99.90;;;;;;5015312;28;20428;-86
2022/06/20 03:56:11;;;;;;;5.10;1.40;;;16.20;99.90;;;;;;4984750;28;20031;-86
2022/06/20 03:58:58;;;;;;;4.32;1.52;;;16.10;99.90;;;;;;4983938;28;20463;-87
2022/06/20 04:01:38;;;;;;;5.00;1.35;;;16.10;99.90;;;;;;4969927;28;20031;-86
2022/06/20 04:04:28;;;;;;;8.52;2.13;;;16.10;99.90;;;;;;4978803;28;20019;-86
2022/06/20 04:06:59;;;;;;;6.30;1.50;;;16.10;99.90;;;;;;4968579;28;20038;-86
2022/06/20 04:12:31;;;;;;;5.60;1.58;;;16.00;99.90;;;;;;4985512;28;20100;-86
2022/06/20 04:15:04;;;;;;;5.32;1.52;;;16.00;99.90;;;;;;4983349;28;20030;-86
2022/06/20 04:21:03;;;;;;;4.63;1.60;;;16.00;99.90;;;;;;5050223;28;20044;-87
2022/06/20 04:24:05;;;;;;;5.65;1.40;;;16.00;99.90;;;;;;4956386;28;20065;-86
2022/06/20 04:26:43;;;;;;;6.65;1.50;;;16.00;99.90;;;;;;4958083;28;20070;-87
2022/06/20 04:29:44;;;;;;;8.63;1.88;;;16.00;99.90;;;;;;4967654;28;20084;-87
2022/06/20 04:32:17;;;;;;;7.57;1.90;;;16.00;99.90;;;;;;4993439;28;20474;-86
2022/06/20 04:34:47;;;;;;;7.57;2.05;;;16.00;99.90;;;;;;4971377;28;20039;-87
2022/06/20 04:37:38;;;;;;;6.97;1.50;;;16.00;99.90;;;;;;4971210;28;20059;-86
2022/06/20 04:40:24;;;;;;;6.85;1.73;;;16.10;99.90;;;;;;4971384;28;20034;-85
2022/06/20 04:43:01;;;;;;;5.43;1.70;;;16.10;99.90;;;;;;4970292;28;20102;-87
2022/06/20 04:45:44;;;;;;;6.43;1.80;;;16.00;99.90;;;;;;4977418;28;20462;-86
2022/06/20 04:48:16;;;;;;;5.63;1.23;;;16.10;99.90;;;;;;4961605;28;20030;-87
2022/06/20 04:50:48;;;;;;;5.65;1.67;;;16.10;99.90;;;;;;4968870;28;20105;-86
2022/06/20 04:53:20;;;;;;;4.22;1.40;;;16.10;99.90;;;;;;4964486;28;20108;-87
2022/06/20 04:55:51;;;;;;;6.28;1.33;;;16.10;99.90;;;;;;4966668;28;20037;-86
2022/06/20 04:58:34;;;;;;;;;;;16.10;99.90;;;;;;4969838;28;20061;-86
2022/06/20 05:01:00;;;;;;;4.22;1.60;;;16.10;99.90;;;;;;4966666;28;20266;-86
2022/06/20 05:03:29;;;;;;;7.75;2.50;;;16.10;99.90;;;;;;4966645;28;20031;-86
2022/06/20 05:05:58;;;;;;;6.22;1.85;;;16.10;99.90;;;;;;4966954;28;20109;-86
2022/06/20 05:08:31;;;;;;;9.77;2.22;;;16.10;99.90;;;;;;4969279;28;20033;-86
2022/06/20 05:11:18;;;;;;;4.70;1.63;;;16.10;99.90;;;;;;4968255;28;20028;-87
2022/06/20 05:14:09;;;;;;;9.10;1.85;;;16.20;99.90;;;;;;4968194;28;20027;-87
2022/06/20 05:16:42;;;;;;;8.07;2.00;;;16.20;99.90;;;;;;4970342;28;20121;-87
2022/06/20 05:19:31;;;;;;;8.50;1.92;;;16.20;99.90;;;;;;4982160;28;20023;-87
2022/06/20 05:22:03;;;;;;;6.65;1.77;;;16.20;99.90;;;;;;4969261;28;20039;-84
2022/06/20 05:24:33;;;;;;;6.28;1.80;;;16.20;99.90;;;;;;4971439;28;20018;-86
2022/06/20 05:27:06;;;;;;;6.77;1.67;;;16.20;99.90;;;;;;4964777;28;20034;-86
2022/06/20 05:29:34;;;;;;;5.72;1.48;;;16.30;99.90;;;;;;4966976;28;20262;-87
2022/06/20 05:32:03;;;;;;;9.23;2.20;;;16.30;99.90;;;;;;4967957;28;20463;-87
2022/06/20 05:34:50;;;;;;;6.38;2.20;;;16.30;99.90;;;;;;4967118;28;20023;-87
2022/06/20 05:37:56;;;;;;;8.57;1.58;;;16.40;99.90;;;;;;4965299;28;20502;-86
2022/06/20 05:40:43;;;;;;;9.23;2.42;;;16.40;99.90;;;;;;4966815;28;20023;-88
2022/06/20 05:43:17;;;;;;;4.57;1.60;;;16.40;99.90;;;;;;4982679;28;20025;-88
2022/06/20 05:45:43;;;;;;;5.95;1.60;;;16.50;99.90;;;;;;4981607;28;20091;-88
2022/06/20 05:48:12;;;;;;;6.82;1.73;;;16.50;99.90;;;;;;4956715;28;20023;-88
2022/06/20 05:50:56;;;;;;;6.53;1.70;;;16.50;99.90;;;;;;4973117;28;20022;-87
2022/06/20 05:53:27;;;;;;;5.82;1.50;;;16.50;99.90;;;;;;4975331;28;20534;-88
2022/06/20 05:55:57;;;;;;;;;;;16.50;99.90;;;;;;4969849;28;20042;-87
2022/06/20 05:58:35;;;;;;;6.85;1.65;;;16.50;99.90;;;;;;4970047;28;19922;-87
2022/06/20 06:01:07;;;;;;;6.78;1.60;;;16.50;99.90;;;;;;4956348;28;20023;-86
2022/06/20 06:03:51;;;;;;;6.72;1.85;;;16.50;99.90;;;;;;4971519;28;20031;-87
2022/06/20 06:06:27;;;;;;;7.07;1.55;;;16.50;99.90;;;;;;4966663;28;20033;-86
2022/06/20 06:09:02;;;;;;;5.53;1.70;;;16.50;99.90;;;;;;4969730;28;20047;-86
2022/06/20 06:11:38;;;;;;;6.70;2.33;;;16.60;99.90;;;;;;4969364;28;20176;-86
2022/06/20 06:14:21;;;;;;;7.95;1.90;;;16.60;99.90;;;;;;4972297;28;20034;-86
2022/06/20 06:16:58;;;;;;;7.18;1.63;;;16.60;99.90;;;;;;5013103;28;20033;-86
2022/06/20 06:19:43;;;;;;;8.35;1.60;;;16.60;99.90;;;;;;4999511;28;20031;-86
2022/06/20 06:22:20;;;;;;;4.28;1.60;;;16.70;99.90;;;;;;4987238;28;20479;-86
2022/06/20 06:24:50;;;;;;;6.15;1.90;;;16.70;99.90;;;;;;4991667;28;20030;-86
2022/06/20 06:27:24;;;;;;;7.82;1.80;;;16.70;99.90;;;;;;4976569;28;20026;-86
2022/06/20 06:30:17;;;;;;;5.63;1.88;;;16.70;99.90;;;;;;4980475;28;20030;-86
2022/06/20 06:32:45;;;;;;;6.32;1.88;;;16.80;99.90;;;;;;4987311;28;20524;-86
2022/06/20 06:35:35;;;;;;;6.07;2.00;;;16.80;99.90;;;;;;4972284;28;20023;-86
2022/06/20 06:38:11;;;;;;;5.20;1.42;;;16.90;99.90;;;;;;4972297;28;20471;-86
2022/06/20 06:40:50;;;;;;;5.82;1.70;;;16.90;99.90;;;;;;4972292;28;20034;-86
2022/06/20 06:43:23;;;;;;;9.77;2.45;;;17.00;99.90;;;;;;4979748;28;20027;-87
2022/06/20 06:45:52;;;;;;;7.07;2.50;;;17.00;99.90;;;;;;4990558;28;20026;-88
2022/06/20 06:48:45;;;;;;;5.35;1.73;;;17.10;99.90;;;;;;4993950;28;20015;-87
2022/06/20 06:51:37;;;;;;;8.90;1.90;;;17.10;99.90;;;;;;4997609;28;20023;-88
2022/06/20 06:54:17;;;;;;;5.80;2.22;;;17.10;99.90;;;;;;4996093;28;20094;-87
2022/06/20 06:57:09;;;;;;;10.50;2.20;;;17.10;99.90;;;;;;4991512;28;20072;-87
2022/06/20 07:00:03;;;;;;;6.50;2.00;;;17.10;99.90;;;;;;4994236;28;20007;-86
2022/06/20 07:02:34;;;;;;;8.65;2.28;;;17.10;99.90;;;;;;4975125;28;20113;-87
2022/06/20 07:05:13;;;;;;;5.28;2.28;;;17.20;99.90;;;;;;4986391;28;20045;-87
2022/06/20 07:07:51;;;;;;;6.50;2.53;;;17.20;99.90;;;;;;4978424;28;20063;-87
2022/06/20 07:10:52;;;;;;;6.95;2.08;;;17.20;99.90;;;;;;4973215;28;20023;-87
2022/06/20 07:13:40;;;;;;;7.65;2.13;;;17.30;99.90;;;;;;4989245;28;20058;-87
2022/06/20 07:16:22;;;;;;;10.10;2.30;;;17.40;99.90;;;;;;4978638;28;20053;-88
2022/06/20 07:18:52;;;;;;;7.47;2.30;;;17.40;99.90;;;;;;4972612;28;20019;-87
2022/06/20 07:21:19;;;;;;;5.13;2.22;;;17.50;99.90;;;;;;4992887;28;20382;-88
2022/06/20 07:23:56;;;;;;;7.97;2.15;;;17.50;99.90;;;;;;4972074;28;20026;-88
2022/06/20 07:26:23;;;;;;;6.25;2.30;;;17.60;99.90;;;;;;4971781;28;20471;-87
2022/06/20 07:28:55;;;;;;;5.28;2.08;;;17.70;99.90;;;;;;4971265;28;20065;-88
2022/06/20 07:31:40;;;;;;;6.30;2.10;;;17.70;99.90;;;;;;4972826;28;20463;-88
2022/06/20 07:34:13;;;;;;;6.18;1.83;;;17.80;99.90;;;;;;4972559;28;20062;-88
2022/06/20 07:36:49;;;;;;;6.80;2.28;;;17.90;99.90;;;;;;4972458;28;20393;-87
2022/06/20 07:39:47;;;;;;;7.53;2.78;;;17.90;99.90;;;;;;4970812;28;20050;-88
2022/06/20 07:42:22;;;;;;;7.07;2.40;;;18.00;99.90;;;;;;4986966;28;20126;-88
2022/06/20 07:45:19;;;;;;;6.30;2.42;;;18.10;99.90;;;;;;4971023;28;20129;-86
2022/06/20 07:47:54;;;;;;;6.20;2.30;;;18.20;99.90;;;;;;4986560;28;20049;-87
2022/06/20 07:50:28;;;;;;;6.97;2.40;;;18.30;99.90;;;;;;4980102;28;20026;-89
2022/06/20 07:53:19;;;;;;;6.78;2.67;;;18.30;99.80;;;;;;4990413;28;20026;-87
2022/06/20 07:55:51;;;;;;;5.05;1.75;;;18.40;99.60;;;;;;4991582;28;20018;-86
2022/06/20 07:58:26;;;;;;;7.32;2.45;;;18.40;99.40;;;;;;4973041;28;20065;-86
2022/06/20 08:00:53;;;;;;;5.47;1.90;;;18.50;99.00;;;;;;4971727;28;20080;-87
2022/06/20 08:03:26;;;;;;;4.93;1.90;;;18.60;98.70;;;;;;4970842;28;20049;-87
2022/06/20 08:06:03;;;;;;;6.15;2.03;;;18.60;98.30;;;;;;4971681;28;20034;-90
2022/06/20 08:08:33;;;;;;;5.30;1.75;;;18.60;97.70;;;;;;4985025;28;20027;-88
2022/06/20 08:11:42;;;;;;;5.00;1.90;;;18.70;97.40;;;;;;4978821;28;20035;-88
2022/06/20 08:14:25;;;;;;;7.00;2.40;;;18.80;97.20;;;;;;4960568;28;20429;-88
2022/06/20 08:16:56;;;;;;;5.00;1.88;;;18.90;97.00;;;;;;4984008;28;20035;-88
2022/06/20 08:19:25;;;;;;;7.13;2.38;;;19.00;96.80;;;;;;4969313;28;20023;-90
2022/06/20 08:22:13;;;;;;;5.25;2.17;;;19.00;96.60;;;;;;4971103;28;20073;-87
2022/06/20 08:24:46;;;;;;;6.20;2.15;;;19.10;96.40;;;;;;4971606;28;20029;-87
2022/06/20 08:27:31;;;;;;;6.82;2.00;;;19.10;95.80;;;;;;4970830;28;20085;-89
2022/06/20 08:30:11;;;;;;;4.85;2.10;;;19.30;95.40;;;;;;4970757;28;20370;-88
2022/06/20 08:33:09;;;;;;;5.18;1.83;;;19.20;94.80;;;;;;4969989;28;20114;-86
2022/06/20 08:35:39;;;;;;;4.60;2.08;;;19.30;94.70;;;;;;4998158;28;20046;-86
2022/06/20 08:38:26;;;;;;;5.82;2.00;;;19.40;94.70;;;;;;4973569;28;20057;-87
2022/06/20 08:41:13;;;;;;;5.13;2.22;;;19.50;94.80;;;;;;4973973;28;20034;-88
2022/06/20 08:43:59;;;;;;;8.73;2.28;;;19.50;94.70;;;;;;4985503;28;20027;-86
2022/06/20 08:47:07;;;;;;;9.13;2.40;;;19.60;94.30;;;;;;4994421;28;20023;-87
2022/06/20 08:49:58;;;;;;;7.55;2.00;;;19.70;93.80;;;;;;4977199;28;20073;-86
2022/06/20 08:52:48;;;;;;;9.30;1.98;;;19.70;93.50;;;;;;4973546;28;20058;-87
2022/06/20 08:55:26;;;;;;;7.10;2.00;;;19.80;93.40;;;;;;4961550;28;20050;-87
2022/06/20 08:58:01;;;;;;;2.95;1.50;;;19.80;93.20;;;;;;4975824;28;20031;-87
2022/06/20 09:00:45;;;;;;;5.90;1.88;;;19.90;93.30;;;;;;4983951;28;20023;-87
2022/06/20 09:03:19;;;;;;;5.32;2.10;;;20.00;93.00;;;;;;4973897;28;20023;-87
2022/06/20 09:06:10;;;;;;;6.45;2.33;;;20.00;92.60;;;;;;4974870;28;20378;-87
2022/06/20 09:09:00;;;;;;;6.18;1.88;;;20.10;92.10;;;;;;4972905;28;20027;-87
2022/06/20 09:11:53;;;;;;;6.77;2.03;;;20.10;91.90;;;;;;4976875;28;20079;-87
2022/06/20 09:14:27;;;;;;;7.32;2.47;;;20.10;91.80;;;;;;5008545;28;20046;-87
2022/06/20 09:17:07;;;;;;;7.93;2.30;;;20.20;91.90;;;;;;5028929;28;20032;-87
2022/06/20 09:19:51;;;;;;;8.63;2.55;;;20.20;91.80;;;;;;5012359;28;20058;-86
2022/06/20 09:22:39;;;;;;;6.13;2.00;;;20.30;91.60;;;;;;4974998;28;20019;-86
2022/06/20 09:25:05;;;;;;;5.20;1.80;;;20.30;91.20;;;;;;4984226;28;20031;-87
2022/06/20 09:27:43;;;;;;;5.82;2.03;;;20.40;91.00;;;;;;4980499;28;20480;-87
2022/06/20 09:30:19;;;;;;;7.32;2.35;;;20.50;90.70;;;;;;4975764;28;20517;-88
2022/06/20 09:32:51;;;;;;;4.57;2.00;;;20.50;90.50;;;;;;4994386;28;20034;-88
2022/06/20 09:36:06;;;;;;;9.75;2.13;;;20.60;90.50;;;;;;4976387;28;20027;-89
2022/06/20 09:39:00;;;;;;;6.97;2.10;;;20.70;90.40;;;;;;4967454;28;20402;-88
2022/06/20 09:41:58;;;;;;;9.13;2.58;;;20.70;90.10;;;;;;4952618;28;20478;-87
2022/06/20 09:44:43;;;;;;;8.13;2.28;;;20.80;89.50;;;;;;4982085;28;20041;-88
2022/06/20 09:47:43;;;;;;;6.13;2.00;;;20.80;89.30;;;;;;4988824;28;20087;-88
2022/06/20 09:50:31;;;;;;;4.90;2.00;;;20.90;89.60;;;;;;4979600;28;20034;-88
2022/06/20 09:53:24;;;;;;;7.30;2.20;;;20.90;89.80;;;;;;4974239;28;20027;-88
2022/06/20 09:56:06;;;;;;;5.28;1.88;;;21.00;89.80;;;;;;4972971;28;20406;-87
2022/06/20 09:58:38;;;;;;;6.50;1.98;;;21.10;89.30;;;;;;4984228;28;20022;-87
2022/06/20 10:01:31;;;;;;;6.18;1.85;;;21.20;89.30;;;;;;4974763;28;20558;-87
2022/06/20 10:04:35;;;;;;;4.68;2.00;;;21.20;89.40;;;;;;4973132;28;20026;-88
2022/06/20 10:07:25;;;;;;;5.60;1.75;;;21.40;89.60;;;;;;4981913;28;20041;-86
2022/06/20 10:10:06;;;;;;;4.05;1.75;;;21.40;88.90;;;;;;4961029;28;20093;-86
2022/06/20 10:13:06;;;;;;;6.32;2.00;;;21.40;88.60;;;;;;4972947;28;20031;-86
2022/06/20 10:15:53;;;;;;;5.45;1.90;;;21.50;87.60;;;;;;4981013;28;20073;-86
2022/06/20 10:18:55;;;;;;;3.92;1.80;;;21.60;87.10;;;;;;4972348;28;20034;-86
2022/06/20 10:21:50;;;;;;;6.45;2.22;;;21.70;86.40;;;;;;4977314;28;20463;-91
2022/06/20 10:24:31;;;;;;;7.07;2.00;;;21.70;85.60;;;;;;4993573;28;20067;-90
2022/06/20 10:27:14;;;;;;;5.78;1.83;;;21.80;84.80;;;;;;4976725;28;20079;-90
2022/06/20 10:29:55;;;;;;;4.15;1.90;;;21.80;84.10;;;;;;4996929;28;20023;-91
2022/06/20 10:32:42;;;;;;;4.15;1.60;;;21.90;84.40;;;;;;4996404;28;20039;-89
2022/06/20 10:35:18;;;;;;;5.28;2.03;;;21.90;84.50;;;;;;4997006;28;20017;-87
2022/06/20 10:38:02;;;;;;;8.85;1.80;;;22.00;84.50;;;;;;5003294;28;20078;-88
2022/06/20 10:40:37;;;;;;;4.70;1.67;;;22.00;83.50;;;;;;4995844;28;20031;-86
2022/06/20 10:43:21;;;;;;;5.18;1.70;;;22.10;82.40;;;;;;4997270;28;20078;-87
2022/06/20 10:45:55;;;;;;;5.50;2.05;;;22.10;82.30;;;;;;4968872;28;20072;-87
2022/06/20 10:48:33;;;;;;;4.10;1.55;;;22.10;82.00;;;;;;4977599;28;20467;-87
2022/06/20 10:51:26;;;;;;;4.90;1.27;;;22.20;82.20;;;;;;4976605;28;20463;-89
2022/06/20 10:54:28;;;;;;;4.68;1.65;;;22.20;82.10;;;;;;4985631;28;20459;-86
2022/06/20 10:57:02;;;;;;;4.50;1.55;;;22.30;80.90;;;;;;4972712;28;20034;-86
2022/06/20 10:59:37;;;;;;;3.80;1.30;;;22.30;80.20;;;;;;4983939;28;20034;-86
2022/06/20 11:02:46;;;;;;;5.38;1.40;;;22.30;80.00;;;;;;4977948;28;20041;-86
2022/06/20 11:05:31;;;;;;;3.45;1.15;;;22.30;79.30;;;;;;4964547;28;20027;-86
2022/06/20 11:08:30;;;;;;;3.78;1.40;;;22.30;78.70;;;;;;4972385;28;20026;-86
2022/06/20 11:11:04;;;;;;;5.47;1.50;;;22.40;78.50;;;;;;4972915;28;20023;-86
2022/06/20 11:13:53;;;;;;;3.65;1.40;;;22.40;78.00;;;;;;4985266;28;20465;-86
2022/06/20 11:16:43;;;;;;;3.45;1.35;;;22.50;77.80;;;;;;4959578;28;20114;-86
2022/06/20 11:19:34;;;;;;;4.65;1.30;;;22.50;77.40;;;;;;4970685;28;20030;-88
2022/06/20 11:22:36;;;;;;;4.38;1.30;;;22.60;77.20;;;;;;4972327;28;20022;-86
2022/06/20 11:25:09;;;;;;;4.93;1.40;;;22.60;76.10;;;;;;4971208;28;20027;-86
2022/06/20 11:28:06;;;;;;;4.72;1.48;;;22.70;75.40;;;;;;4970875;28;20544;-84
2022/06/20 11:30:50;;;;;;;4.65;1.45;;;22.80;75.30;;;;;;4970768;28;20042;-85
2022/06/20 11:34:00;;;;;;;3.60;1.20;;;22.80;74.40;;;;;;4972123;28;20035;-85
2022/06/20 11:36:23;;;;;;;4.38;1.35;;;22.80;73.60;;;;;;4971737;28;20063;-86
2022/06/20 11:39:12;;;;;;;4.75;1.40;;;22.80;73.70;;;;;;4970637;28;20051;-86
2022/06/20 11:41:54;;;;;;;7.95;1.48;;;22.80;74.10;;;;;;4972319;28;20451;-85
2022/06/20 11:44:38;;;;;;;5.20;1.63;;;22.90;74.20;;;;;;4971894;28;20103;-86
2022/06/20 11:47:10;;;;;;;4.75;1.63;;;22.90;72.80;;;;;;4958365;28;20035;-85
2022/06/20 11:50:01;;;;;;;7.45;2.00;;;22.90;72.10;;;;;;4970677;28;20023;-86
2022/06/20 11:52:48;;;;;;;6.63;1.58;;;22.90;71.90;;;;;;4960246;28;20030;-85
2022/06/20 11:55:33;;;;;;;2.95;1.52;;;23.00;71.30;;;;;;4984619;28;20031;-86
2022/06/20 11:58:28;;;;;;;3.45;1.20;;;23.00;71.60;;;;;;4970543;28;20510;-86
2022/06/20 12:01:02;;;;;;;5.90;2.05;;;23.10;71.90;;;;;;4956150;28;20030;-85
2022/06/20 12:03:56;;;;;;;4.97;1.75;;;23.10;70.20;;;;;;4967166;28;20031;-86
2022/06/20 12:06:49;;;;;;;5.72;1.60;;;23.10;70.10;;;;;;4970461;28;20029;-85
2022/06/20 12:09:47;;;;;;;4.80;1.63;;;23.20;71.60;;;;;;4977125;28;20026;-85
2022/06/20 12:12:54;;;;;;;5.30;1.50;;;23.20;72.00;;;;;;4973790;28;20061;-85
2022/06/20 12:15:58;;;;;;;3.78;1.17;;;23.20;70.80;;;;;;4970085;28;20023;-86
2022/06/20 12:23:18;;;;;;;3.53;1.38;;;23.30;70.40;;;;;;5045602;28;20091;-88
2022/06/20 12:24:16;;;;;;;8.30;1.60;;;23.30;70.30;;;;;;4971379;28;20030;-87
2022/06/20 12:26:42;;;;;;;3.92;1.30;;;23.30;70.10;;;;;;4971637;28;20043;-85
2022/06/20 12:29:20;;;;;;;3.92;1.33;;;23.40;69.30;;;;;;4954232;28;20049;-85
2022/06/20 12:31:53;;;;;;;4.63;1.42;;;23.40;69.20;;;;;;4970944;28;20023;-85
2022/06/20 12:34:49;;;;;;;4.82;1.65;;;23.50;69.90;;;;;;4986891;28;20018;-86
2022/06/20 12:37:36;;;;;;;5.35;1.52;;;23.50;69.50;;;;;;4968769;28;20443;-85
2022/06/20 12:40:27;;;;;;;6.57;1.58;;;23.50;69.90;;;;;;4969403;28;20030;-86
2022/06/20 12:43:03;;;;;;;4.38;1.50;;;23.50;69.80;;;;;;4974524;28;20019;-85
2022/06/20 12:45:50;;;;;;;5.38;2.13;;;23.60;69.60;;;;;;4985131;28;20073;-86
2022/06/20 12:48:44;;;;;;;4.50;1.63;;;23.60;68.90;;;;;;4979657;28;20343;-85
2022/06/20 12:51:28;;;;;;;7.13;2.10;;;23.70;68.90;;;;;;4971543;28;20055;-86
2022/06/20 12:54:05;;;;;;;6.80;1.90;;;23.70;69.20;;;;;;4983688;28;20490;-87
2022/06/20 12:56:44;;;;;;;7.40;2.05;;;23.70;69.90;;;;;;4970913;28;20035;-85
2022/06/20 12:59:21;;;;;;;4.82;1.55;;;23.70;69.30;;;;;;4976929;28;20033;-85
2022/06/20 13:02:03;;;;;;;4.97;2.13;;;23.80;68.70;;;;;;4977180;28;20038;-85
2022/06/20 13:04:58;;;;;;;4.47;1.63;;;23.80;68.10;;;;;;4981071;28;20023;-85
2022/06/20 13:07:52;;;;;;;4.10;1.65;;;23.90;68.20;;;;;;4974364;28;20034;-88
2022/06/20 13:10:48;;;;;;;5.00;1.65;;;23.90;68.90;;;;;;4974962;28;20146;-87
2022/06/20 13:13:28;;;;;;;5.68;1.75;;;24.00;69.00;;;;;;4983565;28;20122;-85
2022/06/20 13:16:15;;;;;;;6.32;1.55;;;24.00;68.80;;;;;;4974259;28;20034;-88
2022/06/20 13:18:56;;;;;;;5.68;1.80;;;24.10;68.40;;;;;;4975465;28;20035;-85
2022/06/20 13:21:41;;;;;;;7.05;2.15;;;24.10;68.20;;;;;;4976085;28;20050;-87
2022/06/20 13:24:18;;;;;;;6.10;1.55;;;24.10;68.00;;;;;;4979350;28;20098;-85
2022/06/20 13:26:50;;;;;;;6.82;2.22;;;24.10;67.70;;;;;;4974090;28;20058;-85
2022/06/20 13:29:41;;;;;;;6.60;1.60;;;24.10;66.90;;;;;;4989811;28;20049;-85
2022/06/20 13:32:52;;;;;;;6.00;1.65;;;24.10;66.50;;;;;;4980872;28;20031;-87
2022/06/20 13:35:49;;;;;;;3.97;1.80;;;24.10;67.20;;;;;;4966942;28;20039;-85
2022/06/20 13:38:39;;;;;;;7.28;2.00;;;24.20;67.30;;;;;;4959417;28;20074;-84
2022/06/20 13:41:27;;;;;;;7.00;2.17;;;24.20;67.50;;;;;;4973757;28;20019;-85
2022/06/20 13:44:21;;;;;;;8.10;2.00;;;24.30;67.80;;;;;;4983034;28;20026;-85
2022/06/20 13:46:55;;;;;;;6.43;1.77;;;24.30;67.30;;;;;;4986737;28;20027;-85
2022/06/20 13:49:31;;;;;;;11.55;2.13;;;24.30;66.60;;;;;;4979127;28;20455;-84
2022/06/20 13:52:30;;;;;;;9.68;2.88;;;24.30;66.70;;;;;;4975737;28;20026;-85
2022/06/20 13:55:16;;;;;;;6.55;1.80;;;24.30;66.60;;;;;;4994918;28;20031;-87
2022/06/20 13:57:57;;;;;;;8.13;2.00;;;24.30;66.30;;;;;;4965452;28;20505;-85
2022/06/20 14:00:30;;;;;;;5.95;1.77;;;24.20;66.20;;;;;;4968927;28;20049;-85
2022/06/20 14:03:12;;;;;;;6.28;2.03;;;24.20;66.00;;;;;;4972153;28;20023;-87
2022/06/20 14:05:38;;;;;;;7.15;1.70;;;24.20;65.40;;;;;;4972412;28;20027;-85
2022/06/20 14:08:14;;;;;;;6.82;1.77;;;24.20;64.90;;;;;;4974192;28;20031;-85